sensor_id;sensor_type;location;lat;lon;timestamp;pressure;altitude;pressure_sealevel;temperature;humidity
57568;BME280;43403;51.948;5.922;2022-12-24T00:02:19;100496.88;;;9.93;100.00
57568;BME280;43403;51.948;5.922;2022-12-24T00:04:45;100505.41;;;9.95;100.00
57568;BME280;43403;51.948;5.922;2022-12-24T00:07:12;100509.44;;;9.89;100.00
57568;BME280;43403;51.948;5.922;2022-12-24T00:09:38;100507.63;;;9.89;100.00
57568;BME280;43403;51.948;5.922;2022-12-24T00:12:05;100511.91;;;9.90;100.00
57568;BME280;43403;51.948;5.922;2022-12-24T00:14:31;100514.69;;;9.89;100.00
57568;BME280;43403;51.948;5.922;2022-12-24T00:16:58;100510.44;;;9.88;100.00
57568;BME280;43403;51.948;5.922;2022-12-24T00:19:25;100508.16;;;9.93;100.00
57568;BME280;43403;51.948;5.922;2022-12-24T00:21:52;100522.25;;;9.92;100.00
57568;BME280;43403;51.948;5.922;2022-12-24T00:24:18;100522.25;;;9.92;100.00
57568;BME280;43403;51.948;5.922;2022-12-24T00:26:45;100521.59;;;9.90;100.00
57568;BME280;43403;51.948;5.922;2022-12-24T00:29:11;100523.53;;;9.88;100.00
57568;BME280;43403;51.948;5.922;2022-12-24T00:31:38;100530.72;;;9.86;100.00
57568;BME280;43403;51.948;5.922;2022-12-24T00:34:04;100539.41;;;9.86;100.00
57568;BME280;43403;51.948;5.922;2022-12-24T00:36:30;100524.34;;;9.88;100.00
57568;BME280;43403;51.948;5.922;2022-12-24T00:38:57;100548.22;;;9.85;100.00
57568;BME280;43403;51.948;5.922;2022-12-24T00:41:23;100532.50;;;9.85;100.00
57568;BME280;43403;51.948;5.922;2022-12-24T00:43:56;100546.94;;;9.89;100.00
57568;BME280;43403;51.948;5.922;2022-12-24T00:46:24;100545.72;;;9.84;100.00
57568;BME280;43403;51.948;5.922;2022-12-24T00:48:51;100545.72;;;9.84;100.00
57568;BME280;43403;51.948;5.922;2022-12-24T00:51:18;100562.44;;;9.83;100.00
57568;BME280;43403;51.948;5.922;2022-12-24T00:53:45;100555.03;;;9.78;100.00
57568;BME280;43403;51.948;5.922;2022-12-24T00:56:12;100557.13;;;9.75;100.00
57568;BME280;43403;51.948;5.922;2022-12-24T00:58:38;100567.88;;;9.72;100.00
57568;BME280;43403;51.948;5.922;2022-12-24T01:01:05;100573.66;;;9.75;100.00
57568;BME280;43403;51.948;5.922;2022-12-24T01:03:32;100577.94;;;9.76;100.00
57568;BME280;43403;51.948;5.922;2022-12-24T01:06:13;100587.72;;;9.74;100.00
57568;BME280;43403;51.948;5.922;2022-12-24T01:08:40;100587.19;;;9.70;100.00
57568;BME280;43403;51.948;5.922;2022-12-24T01:11:08;100603.72;;;9.71;100.00
57568;BME280;43403;51.948;5.922;2022-12-24T01:13:35;100593.13;;;9.73;100.00
57568;BME280;43403;51.948;5.922;2022-12-24T01:16:02;100609.41;;;9.66;100.00
57568;BME280;43403;51.948;5.922;2022-12-24T01:18:28;100592.50;;;9.61;100.00
57568;BME280;43403;51.948;5.922;2022-12-24T01:21:00;100603.88;;;9.69;100.00
57568;BME280;43403;51.948;5.922;2022-12-24T01:23:28;100601.25;;;9.69;100.00
57568;BME280;43403;51.948;5.922;2022-12-24T01:25:58;100615.03;;;9.72;100.00
57568;BME280;43403;51.948;5.922;2022-12-24T01:28:25;100618.38;;;9.64;100.00
57568;BME280;43403;51.948;5.922;2022-12-24T01:30:52;100613.81;;;9.66;100.00
57568;BME280;43403;51.948;5.922;2022-12-24T01:33:18;100616.06;;;9.61;100.00
57568;BME280;43403;51.948;5.922;2022-12-24T01:35:45;100619.09;;;9.56;100.00
57568;BME280;43403;51.948;5.922;2022-12-24T01:38:12;100636.75;;;9.54;100.00
57568;BME280;43403;51.948;5.922;2022-12-24T01:40:39;100625.44;;;9.54;100.00
57568;BME280;43403;51.948;5.922;2022-12-24T01:43:30;100633.84;;;9.57;100.00
57568;BME280;43403;51.948;5.922;2022-12-24T01:46:15;100635.47;;;9.58;100.00
57568;BME280;43403;51.948;5.922;2022-12-24T01:48:48;100636.59;;;9.56;100.00
57568;BME280;43403;51.948;5.922;2022-12-24T01:51:32;100645.13;;;9.58;100.00
57568;BME280;43403;51.948;5.922;2022-12-24T01:56:33;100648.78;;;9.47;100.00
57568;BME280;43403;51.948;5.922;2022-12-24T01:59:05;100647.94;;;9.46;100.00
57568;BME280;43403;51.948;5.922;2022-12-24T02:01:33;100658.72;;;9.43;100.00
57568;BME280;43403;51.948;5.922;2022-12-24T02:04:05;100656.75;;;9.45;100.00
57568;BME280;43403;51.948;5.922;2022-12-24T02:06:33;100662.00;;;9.45;100.00
57568;BME280;43403;51.948;5.922;2022-12-24T02:09:00;100668.91;;;9.37;100.00
57568;BME280;43403;51.948;5.922;2022-12-24T02:11:27;100663.66;;;9.37;100.00
57568;BME280;43403;51.948;5.922;2022-12-24T02:13:56;100677.59;;;9.37;100.00
57568;BME280;43403;51.948;5.922;2022-12-24T02:19:19;100685.63;;;9.26;100.00
57568;BME280;43403;51.948;5.922;2022-12-24T02:22:31;100692.66;;;9.25;100.00
57568;BME280;43403;51.948;5.922;2022-12-24T02:27:53;100699.41;;;9.18;100.00
57568;BME280;43403;51.948;5.922;2022-12-24T02:30:44;100705.88;;;9.14;100.00
57568;BME280;43403;51.948;5.922;2022-12-24T02:35:58;100707.41;;;9.07;100.00
57568;BME280;43403;51.948;5.922;2022-12-24T02:38:42;100714.44;;;9.06;100.00
57568;BME280;43403;51.948;5.922;2022-12-24T02:41:21;100712.06;;;9.03;100.00
57568;BME280;43403;51.948;5.922;2022-12-24T02:43:51;100716.09;;;8.98;100.00
57568;BME280;43403;51.948;5.922;2022-12-24T02:46:24;100711.69;;;8.98;100.00
57568;BME280;43403;51.948;5.922;2022-12-24T02:48:52;100712.06;;;8.94;100.00
57568;BME280;43403;51.948;5.922;2022-12-24T02:51:23;100715.53;;;8.94;100.00
57568;BME280;43403;51.948;5.922;2022-12-24T02:53:50;100713.63;;;8.86;100.00
57568;BME280;43403;51.948;5.922;2022-12-24T02:56:56;100712.50;;;8.89;100.00
57568;BME280;43403;51.948;5.922;2022-12-24T02:59:32;100712.78;;;8.86;100.00
57568;BME280;43403;51.948;5.922;2022-12-24T03:02:41;100714.44;;;8.87;100.00
57568;BME280;43403;51.948;5.922;2022-12-24T03:08:04;100719.09;;;8.83;100.00
57568;BME280;43403;51.948;5.922;2022-12-24T03:10:45;100714.84;;;8.82;100.00
57568;BME280;43403;51.948;5.922;2022-12-24T03:13:15;100713.75;;;8.85;100.00
57568;BME280;43403;51.948;5.922;2022-12-24T03:15:42;100719.25;;;8.82;100.00
57568;BME280;43403;51.948;5.922;2022-12-24T03:18:11;100715.00;;;8.81;100.00
57568;BME280;43403;51.948;5.922;2022-12-24T03:20:43;100722.53;;;8.84;100.00
57568;BME280;43403;51.948;5.922;2022-12-24T03:23:10;100725.59;;;8.79;100.00
57568;BME280;43403;51.948;5.922;2022-12-24T03:25:40;100723.53;;;8.83;100.00
57568;BME280;43403;51.948;5.922;2022-12-24T03:28:09;100720.91;;;8.83;100.00
57568;BME280;43403;51.948;5.922;2022-12-24T03:30:42;100724.34;;;8.83;100.00
57568;BME280;43403;51.948;5.922;2022-12-24T03:33:10;100732.31;;;8.82;100.00
57568;BME280;43403;51.948;5.922;2022-12-24T03:35:37;100731.78;;;8.78;100.00
57568;BME280;43403;51.948;5.922;2022-12-24T03:38:03;100736.34;;;8.76;100.00
57568;BME280;43403;51.948;5.922;2022-12-24T03:40:30;100745.94;;;8.76;100.00
57568;BME280;43403;51.948;5.922;2022-12-24T03:42:57;100747.75;;;8.75;100.00
57568;BME280;43403;51.948;5.922;2022-12-24T03:45:23;100738.66;;;8.79;100.00
57568;BME280;43403;51.948;5.922;2022-12-24T03:47:50;100739.34;;;8.81;100.00
57568;BME280;43403;51.948;5.922;2022-12-24T03:50:16;100741.69;;;8.84;100.00
57568;BME280;43403;51.948;5.922;2022-12-24T03:52:43;100738.66;;;8.89;100.00
57568;BME280;43403;51.948;5.922;2022-12-24T03:55:09;100743.75;;;8.90;100.00
57568;BME280;43403;51.948;5.922;2022-12-24T03:57:36;100737.72;;;8.90;100.00
57568;BME280;43403;51.948;5.922;2022-12-24T04:00:05;100732.75;;;8.97;100.00
57568;BME280;43403;51.948;5.922;2022-12-24T04:02:32;100738.09;;;8.95;100.00
57568;BME280;43403;51.948;5.922;2022-12-24T04:04:59;100749.69;;;9.02;100.00
57568;BME280;43403;51.948;5.922;2022-12-24T04:07:25;100739.78;;;9.06;100.00
57568;BME280;43403;51.948;5.922;2022-12-24T04:09:52;100745.69;;;9.08;100.00
57568;BME280;43403;51.948;5.922;2022-12-24T04:12:18;100750.25;;;9.16;100.00
57568;BME280;43403;51.948;5.922;2022-12-24T04:14:45;100750.25;;;9.16;100.00
57568;BME280;43403;51.948;5.922;2022-12-24T04:17:11;100747.63;;;9.16;100.00
57568;BME280;43403;51.948;5.922;2022-12-24T04:19:37;100753.25;;;9.21;100.00
57568;BME280;43403;51.948;5.922;2022-12-24T04:22:04;100753.94;;;9.23;100.00
57568;BME280;43403;51.948;5.922;2022-12-24T04:24:30;100747.63;;;9.25;100.00
57568;BME280;43403;51.948;5.922;2022-12-24T04:26:57;100757.53;;;9.32;100.00
57568;BME280;43403;51.948;5.922;2022-12-24T04:29:23;100751.16;;;9.34;100.00
57568;BME280;43403;51.948;5.922;2022-12-24T04:31:49;100752.66;;;9.37;100.00
57568;BME280;43403;51.948;5.922;2022-12-24T04:34:16;100764.69;;;9.39;100.00
57568;BME280;43403;51.948;5.922;2022-12-24T04:36:42;100761.06;;;9.40;100.00
57568;BME280;43403;51.948;5.922;2022-12-24T04:39:09;100768.66;;;9.43;100.00
57568;BME280;43403;51.948;5.922;2022-12-24T04:41:35;100764.94;;;9.46;100.00
57568;BME280;43403;51.948;5.922;2022-12-24T04:44:01;100769.72;;;9.50;100.00
57568;BME280;43403;51.948;5.922;2022-12-24T04:46:29;100772.78;;;9.56;100.00
57568;BME280;43403;51.948;5.922;2022-12-24T04:48:56;100770.84;;;9.58;100.00
57568;BME280;43403;51.948;5.922;2022-12-24T04:51:24;100770.25;;;9.64;100.00
57568;BME280;43403;51.948;5.922;2022-12-24T04:53:51;100772.06;;;9.63;100.00
57568;BME280;43403;51.948;5.922;2022-12-24T04:56:20;100766.41;;;9.68;100.00
57568;BME280;43403;51.948;5.922;2022-12-24T04:58:47;100779.50;;;9.68;100.00
57568;BME280;43403;51.948;5.922;2022-12-24T05:01:26;100763.50;;;9.71;100.00
57568;BME280;43403;51.948;5.922;2022-12-24T05:03:54;100772.47;;;9.68;100.00
57568;BME280;43403;51.948;5.922;2022-12-24T05:06:25;100784.03;;;9.76;100.00
57568;BME280;43403;51.948;5.922;2022-12-24T05:08:53;100770.25;;;9.74;100.00
57568;BME280;43403;51.948;5.922;2022-12-24T05:11:20;100771.22;;;9.73;100.00
57568;BME280;43403;51.948;5.922;2022-12-24T05:13:47;100773.16;;;9.70;100.00
57568;BME280;43403;51.948;5.922;2022-12-24T05:16:15;100785.28;;;9.72;100.00
57568;BME280;43403;51.948;5.922;2022-12-24T05:18:41;100787.22;;;9.69;100.00
57568;BME280;43403;51.948;5.922;2022-12-24T05:21:09;100779.78;;;9.75;100.00
57568;BME280;43403;51.948;5.922;2022-12-24T05:23:37;100774.66;;;9.73;100.00
57568;BME280;43403;51.948;5.922;2022-12-24T05:26:32;100781.41;;;9.76;100.00
57568;BME280;43403;51.948;5.922;2022-12-24T05:29:00;100781.56;;;9.74;100.00
57568;BME280;43403;51.948;5.922;2022-12-24T05:31:29;100783.75;;;9.79;100.00
57568;BME280;43403;51.948;5.922;2022-12-24T05:33:56;100785.81;;;9.75;100.00
57568;BME280;43403;51.948;5.922;2022-12-24T05:36:23;100796.16;;;9.77;100.00
57568;BME280;43403;51.948;5.922;2022-12-24T05:38:49;100792.28;;;9.81;100.00
57568;BME280;43403;51.948;5.922;2022-12-24T05:41:16;100800.16;;;9.81;100.00
57568;BME280;43403;51.948;5.922;2022-12-24T05:43:43;100796.16;;;9.86;100.00
57568;BME280;43403;51.948;5.922;2022-12-24T05:46:12;100808.94;;;9.89;100.00
57568;BME280;43403;51.948;5.922;2022-12-24T05:48:38;100801.09;;;9.89;100.00
57568;BME280;43403;51.948;5.922;2022-12-24T05:51:07;100795.69;;;9.91;100.00
57568;BME280;43403;51.948;5.922;2022-12-24T05:53:35;100801.63;;;9.93;100.00
57568;BME280;43403;51.948;5.922;2022-12-24T05:56:05;100803.00;;;9.97;100.00
57568;BME280;43403;51.948;5.922;2022-12-24T05:58:32;100812.25;;;9.92;100.00
57568;BME280;43403;51.948;5.922;2022-12-24T06:01:00;100795.44;;;9.94;100.00
57568;BME280;43403;51.948;5.922;2022-12-24T06:03:28;100802.16;;;9.97;100.00
57568;BME280;43403;51.948;5.922;2022-12-24T06:06:03;100810.03;;;9.97;100.00
57568;BME280;43403;51.948;5.922;2022-12-24T06:08:31;100816.94;;;9.98;100.00
57568;BME280;43403;51.948;5.922;2022-12-24T06:11:00;100822.00;;;9.99;100.00
57568;BME280;43403;51.948;5.922;2022-12-24T06:13:28;100818.44;;;10.00;100.00
57568;BME280;43403;51.948;5.922;2022-12-24T06:15:59;100820.25;;;10.00;100.00
57568;BME280;43403;51.948;5.922;2022-12-24T06:18:28;100823.53;;;10.02;100.00
57568;BME280;43403;51.948;5.922;2022-12-24T06:20:55;100830.44;;;10.03;100.00
57568;BME280;43403;51.948;5.922;2022-12-24T06:23:22;100838.28;;;10.03;100.00
57568;BME280;43403;51.948;5.922;2022-12-24T06:25:50;100834.97;;;10.01;100.00
57568;BME280;43403;51.948;5.922;2022-12-24T06:28:16;100834.16;;;10.00;100.00
57568;BME280;43403;51.948;5.922;2022-12-24T06:30:47;100843.81;;;10.00;100.00
57568;BME280;43403;51.948;5.922;2022-12-24T06:33:14;100842.16;;;9.99;100.00
57568;BME280;43403;51.948;5.922;2022-12-24T06:35:44;100852.50;;;10.00;100.00
57568;BME280;43403;51.948;5.922;2022-12-24T06:38:10;100846.28;;;10.01;100.00
57568;BME280;43403;51.948;5.922;2022-12-24T06:40:38;100845.47;;;10.01;100.00
57568;BME280;43403;51.948;5.922;2022-12-24T06:43:05;100859.56;;;10.00;100.00
57568;BME280;43403;51.948;5.922;2022-12-24T06:45:31;100853.31;;;10.01;100.00
57568;BME280;43403;51.948;5.922;2022-12-24T06:47:58;100879.97;;;9.96;100.00
57568;BME280;43403;51.948;5.922;2022-12-24T06:50:25;100868.38;;;9.99;100.00
57568;BME280;43403;51.948;5.922;2022-12-24T06:52:52;100870.03;;;10.00;100.00
57568;BME280;43403;51.948;5.922;2022-12-24T06:55:18;100873.47;;;10.00;100.00
57568;BME280;43403;51.948;5.922;2022-12-24T06:57:45;100872.94;;;9.97;100.00
57568;BME280;43403;51.948;5.922;2022-12-24T07:00:12;100859.81;;;9.97;100.00
57568;BME280;43403;51.948;5.922;2022-12-24T07:02:42;100864.78;;;10.00;100.00
57568;BME280;43403;51.948;5.922;2022-12-24T07:05:12;100873.75;;;9.97;100.00
57568;BME280;43403;51.948;5.922;2022-12-24T07:07:40;100866.19;;;9.94;100.00
57568;BME280;43403;51.948;5.922;2022-12-24T07:10:10;100866.00;;;9.96;100.00
57568;BME280;43403;51.948;5.922;2022-12-24T07:12:37;100878.28;;;9.95;100.00
57568;BME280;43403;51.948;5.922;2022-12-24T07:15:04;100869.63;;;9.95;100.00
57568;BME280;43403;51.948;5.922;2022-12-24T07:17:30;100891.81;;;10.00;100.00
57568;BME280;43403;51.948;5.922;2022-12-24T07:19:56;100889.75;;;9.94;100.00
57568;BME280;43403;51.948;5.922;2022-12-24T07:22:23;100889.59;;;9.96;100.00
57568;BME280;43403;51.948;5.922;2022-12-24T07:24:50;100905.31;;;9.96;100.00
57568;BME280;43403;51.948;5.922;2022-12-24T07:27:16;100900.94;;;9.96;100.00
57568;BME280;43403;51.948;5.922;2022-12-24T07:29:43;100912.22;;;9.97;100.00
57568;BME280;43403;51.948;5.922;2022-12-24T07:32:09;100918.44;;;9.96;100.00
57568;BME280;43403;51.948;5.922;2022-12-24T07:34:36;100913.34;;;9.94;100.00
57568;BME280;43403;51.948;5.922;2022-12-24T07:37:02;100921.03;;;9.96;100.00
57568;BME280;43403;51.948;5.922;2022-12-24T07:39:29;100921.22;;;9.94;100.00
57568;BME280;43403;51.948;5.922;2022-12-24T07:41:55;100920.91;;;9.97;100.00
57568;BME280;43403;51.948;5.922;2022-12-24T07:44:21;100927.94;;;9.97;100.00
57568;BME280;43403;51.948;5.922;2022-12-24T07:46:48;100926.16;;;9.97;100.00
57568;BME280;43403;51.948;5.922;2022-12-24T07:49:14;100936.38;;;10.00;100.00
57568;BME280;43403;51.948;5.922;2022-12-24T07:51:41;100946.84;;;9.90;100.00
57568;BME280;43403;51.948;5.922;2022-12-24T07:54:10;100951.81;;;9.94;100.00
57568;BME280;43403;51.948;5.922;2022-12-24T07:56:36;100952.91;;;9.91;100.00
57568;BME280;43403;51.948;5.922;2022-12-24T07:59:03;100967.53;;;9.94;100.00
57568;BME280;43403;51.948;5.922;2022-12-24T08:01:29;100970.16;;;9.94;100.00
57568;BME280;43403;51.948;5.922;2022-12-24T08:03:56;100971.13;;;9.93;100.00
57568;BME280;43403;51.948;5.922;2022-12-24T08:06:23;100980.38;;;9.97;100.00
57568;BME280;43403;51.948;5.922;2022-12-24T08:08:49;100987.28;;;9.98;100.00
57568;BME280;43403;51.948;5.922;2022-12-24T08:11:15;100986.56;;;9.96;100.00
57568;BME280;43403;51.948;5.922;2022-12-24T08:13:42;100989.72;;;9.99;100.00
57568;BME280;43403;51.948;5.922;2022-12-24T08:16:08;100988.66;;;10.02;100.00
57568;BME280;43403;51.948;5.922;2022-12-24T08:18:35;100996.50;;;10.02;100.00
57568;BME280;43403;51.948;5.922;2022-12-24T08:21:02;101000.63;;;9.95;100.00
57568;BME280;43403;51.948;5.922;2022-12-24T08:23:28;100998.84;;;9.95;100.00
57568;BME280;43403;51.948;5.922;2022-12-24T08:25:55;101003.25;;;9.95;100.00
57568;BME280;43403;51.948;5.922;2022-12-24T08:28:21;101009.63;;;9.92;100.00
57568;BME280;43403;51.948;5.922;2022-12-24T08:30:48;101016.09;;;9.98;100.00
57568;BME280;43403;51.948;5.922;2022-12-24T08:33:16;101011.94;;;9.95;100.00
57568;BME280;43403;51.948;5.922;2022-12-24T08:35:47;101008.25;;;9.98;100.00
57568;BME280;43403;51.948;5.922;2022-12-24T08:38:14;101017.59;;;9.90;100.00
57568;BME280;43403;51.948;5.922;2022-12-24T08:40:40;101021.72;;;9.93;100.00
57568;BME280;43403;51.948;5.922;2022-12-24T08:43:07;101027.53;;;9.97;100.00
57568;BME280;43403;51.948;5.922;2022-12-24T08:45:34;101017.59;;;10.00;100.00
57568;BME280;43403;51.948;5.922;2022-12-24T08:48:07;101024.50;;;10.01;100.00
57568;BME280;43403;51.948;5.922;2022-12-24T08:50:34;101036.50;;;10.04;100.00
57568;BME280;43403;51.948;5.922;2022-12-24T08:53:01;101037.31;;;10.04;100.00
57568;BME280;43403;51.948;5.922;2022-12-24T08:55:27;101046.16;;;10.03;100.00
57568;BME280;43403;51.948;5.922;2022-12-24T08:57:54;101042.56;;;10.04;100.00
57568;BME280;43403;51.948;5.922;2022-12-24T09:00:20;101055.00;;;10.02;100.00
57568;BME280;43403;51.948;5.922;2022-12-24T09:02:47;101053.31;;;10.01;100.00
57568;BME280;43403;51.948;5.922;2022-12-24T09:05:14;101052.50;;;10.01;100.00
57568;BME280;43403;51.948;5.922;2022-12-24T09:07:42;101064.78;;;10.00;100.00
57568;BME280;43403;51.948;5.922;2022-12-24T09:10:09;101057.47;;;10.04;100.00
57568;BME280;43403;51.948;5.922;2022-12-24T09:12:36;101058.72;;;10.09;100.00
57568;BME280;43403;51.948;5.922;2022-12-24T09:15:03;101065.75;;;10.09;100.00
57568;BME280;43403;51.948;5.922;2022-12-24T09:17:34;101066.97;;;10.15;100.00
57568;BME280;43403;51.948;5.922;2022-12-24T09:20:02;101055.81;;;10.22;100.00
57568;BME280;43403;51.948;5.922;2022-12-24T09:22:29;101066.31;;;10.22;100.00
57568;BME280;43403;51.948;5.922;2022-12-24T09:24:56;101074.03;;;10.24;100.00
57568;BME280;43403;51.948;5.922;2022-12-24T09:27:22;101073.47;;;10.20;100.00
57568;BME280;43403;51.948;5.922;2022-12-24T09:29:49;101076.91;;;10.21;100.00
57568;BME280;43403;51.948;5.922;2022-12-24T09:32:15;101083.84;;;10.22;100.00
57568;BME280;43403;51.948;5.922;2022-12-24T09:34:42;101088.94;;;10.23;100.00
57568;BME280;43403;51.948;5.922;2022-12-24T09:37:08;101086.16;;;10.25;100.00
57568;BME280;43403;51.948;5.922;2022-12-24T09:39:34;101098.31;;;10.26;100.00
57568;BME280;43403;51.948;5.922;2022-12-24T09:45:08;101115.84;;;10.25;100.00
57568;BME280;43403;51.948;5.922;2022-12-24T09:47:41;101117.53;;;10.36;100.00
57568;BME280;43403;51.948;5.922;2022-12-24T09:50:45;101124.72;;;10.34;100.00
57568;BME280;43403;51.948;5.922;2022-12-24T09:55:51;101116.84;;;10.34;100.00
57568;BME280;43403;51.948;5.922;2022-12-24T09:58:28;101126.38;;;10.35;100.00
57568;BME280;43403;51.948;5.922;2022-12-24T10:00:56;101123.88;;;10.34;100.00
57568;BME280;43403;51.948;5.922;2022-12-24T10:03:22;101132.56;;;10.34;100.00
57568;BME280;43403;51.948;5.922;2022-12-24T10:09:05;101123.19;;;10.51;100.00
57568;BME280;43403;51.948;5.922;2022-12-24T10:11:41;101133.97;;;10.58;100.00
57568;BME280;43403;51.948;5.922;2022-12-24T10:14:28;101136.56;;;10.67;100.00
57568;BME280;43403;51.948;5.922;2022-12-24T10:19:56;101153.00;;;10.69;100.00
57568;BME280;43403;51.948;5.922;2022-12-24T10:22:50;101148.44;;;10.62;100.00
57568;BME280;43403;51.948;5.922;2022-12-24T10:25:48;101144.44;;;10.58;100.00
57568;BME280;43403;51.948;5.922;2022-12-24T10:28:18;101150.94;;;10.63;100.00
57568;BME280;43403;51.948;5.922;2022-12-24T10:30:48;101150.81;;;10.65;100.00
57568;BME280;43403;51.948;5.922;2022-12-24T10:33:24;101153.56;;;10.63;100.00
57568;BME280;43403;51.948;5.922;2022-12-24T10:35:55;101155.50;;;10.71;100.00
57568;BME280;43403;51.948;5.922;2022-12-24T10:38:23;101156.19;;;10.73;100.00
57568;BME280;43403;51.948;5.922;2022-12-24T10:40:52;101144.31;;;10.79;100.00
57568;BME280;43403;51.948;5.922;2022-12-24T10:43:26;101151.63;;;10.85;100.00
57568;BME280;43403;51.948;5.922;2022-12-24T10:46:12;101126.47;;;10.92;100.00
57568;BME280;43403;51.948;5.922;2022-12-24T10:48:54;101130.47;;;10.96;100.00
57568;BME280;43403;51.948;5.922;2022-12-24T10:51:36;101142.59;;;11.07;100.00
57568;BME280;43403;51.948;5.922;2022-12-24T10:54:10;101143.28;;;11.09;100.00
57568;BME280;43403;51.948;5.922;2022-12-24T10:56:44;101136.94;;;11.12;100.00
57568;BME280;43403;51.948;5.922;2022-12-24T11:02:00;101140.94;;;11.06;100.00
57568;BME280;43403;51.948;5.922;2022-12-24T11:04:30;101150.06;;;11.02;100.00
57568;BME280;43403;51.948;5.922;2022-12-24T11:07:00;101153.53;;;11.02;100.00
57568;BME280;43403;51.948;5.922;2022-12-24T11:09:32;101151.16;;;10.99;100.00
57568;BME280;43403;51.948;5.922;2022-12-24T11:12:00;101157.41;;;10.98;100.00
57568;BME280;43403;51.948;5.922;2022-12-24T11:14:36;101155.59;;;10.99;100.00
57568;BME280;43403;51.948;5.922;2022-12-24T11:17:04;101145.41;;;10.96;100.00
57568;BME280;43403;51.948;5.922;2022-12-24T11:19:33;101161.84;;;10.88;100.00
57568;BME280;43403;51.948;5.922;2022-12-24T11:22:05;101154.91;;;10.97;100.00
57568;BME280;43403;51.948;5.922;2022-12-24T11:24:34;101151.47;;;10.96;100.00
57568;BME280;43403;51.948;5.922;2022-12-24T11:29:48;101149.41;;;10.90;100.00
57568;BME280;43403;51.948;5.922;2022-12-24T11:32:24;101150.34;;;10.99;100.00
57568;BME280;43403;51.948;5.922;2022-12-24T11:34:50;101156.97;;;10.93;100.00
57568;BME280;43403;51.948;5.922;2022-12-24T11:37:21;101156.31;;;10.91;100.00
57568;BME280;43403;51.948;5.922;2022-12-24T11:39:59;101169.03;;;10.86;100.00
57568;BME280;43403;51.948;5.922;2022-12-24T11:42:34;101171.09;;;10.82;100.00
57568;BME280;43403;51.948;5.922;2022-12-24T11:45:24;101166.66;;;10.83;100.00
57568;BME280;43403;51.948;5.922;2022-12-24T11:47:53;101162.38;;;10.82;100.00
57568;BME280;43403;51.948;5.922;2022-12-24T11:52:48;101162.81;;;10.87;100.00
57568;BME280;43403;51.948;5.922;2022-12-24T12:00:43;101151.88;;;10.82;100.00
57568;BME280;43403;51.948;5.922;2022-12-24T12:03:34;101152.03;;;10.80;100.00
57568;BME280;43403;51.948;5.922;2022-12-24T12:06:10;101162.81;;;10.77;100.00
57568;BME280;43403;51.948;5.922;2022-12-24T12:08:40;101177.19;;;10.73;100.00
57568;BME280;43403;51.948;5.922;2022-12-24T12:11:12;101171.38;;;10.69;100.00
57568;BME280;43403;51.948;5.922;2022-12-24T12:13:42;101168.88;;;10.78;100.00
57568;BME280;43403;51.948;5.922;2022-12-24T12:18:46;101167.63;;;10.82;100.00
57568;BME280;43403;51.948;5.922;2022-12-24T12:21:18;101176.47;;;10.81;100.00
57568;BME280;43403;51.948;5.922;2022-12-24T12:23:50;101176.06;;;10.76;100.00
57568;BME280;43403;51.948;5.922;2022-12-24T12:26:26;101183.09;;;10.75;100.00
57568;BME280;43403;51.948;5.922;2022-12-24T12:29:20;101186.16;;;10.80;100.00
57568;BME280;43403;51.948;5.922;2022-12-24T12:31:54;101176.22;;;10.84;100.00
57568;BME280;43403;51.948;5.922;2022-12-24T12:34:30;101178.13;;;10.82;100.00
57568;BME280;43403;51.948;5.922;2022-12-24T12:37:07;101187.41;;;10.86;100.00
57568;BME280;43403;51.948;5.922;2022-12-24T12:39:40;101187.66;;;10.83;100.00
57568;BME280;43403;51.948;5.922;2022-12-24T12:42:54;101190.97;;;10.75;100.00
57568;BME280;43403;51.948;5.922;2022-12-24T12:50:47;101202.72;;;11.00;100.00
57568;BME280;43403;51.948;5.922;2022-12-24T12:53:47;101201.31;;;11.16;100.00
57568;BME280;43403;51.948;5.922;2022-12-24T12:59:03;101202.56;;;11.12;100.00
57568;BME280;43403;51.948;5.922;2022-12-24T13:10:35;101225.34;;;11.01;100.00
57568;BME280;43403;51.948;5.922;2022-12-24T13:21:43;101236.16;;;10.98;100.00
57568;BME280;43403;51.948;5.922;2022-12-24T13:24:20;101240.03;;;10.94;100.00
57568;BME280;43403;51.948;5.922;2022-12-24T13:27:28;101244.41;;;10.94;100.00
57568;BME280;43403;51.948;5.922;2022-12-24T13:30:13;101239.16;;;10.94;100.00
57568;BME280;43403;51.948;5.922;2022-12-24T13:32:53;101249.13;;;10.90;100.00
57568;BME280;43403;51.948;5.922;2022-12-24T13:37:47;101260.19;;;10.84;100.00
57568;BME280;43403;51.948;5.922;2022-12-24T13:42:47;101258.94;;;10.68;100.00
57568;BME280;43403;51.948;5.922;2022-12-24T13:50:50;101262.78;;;10.64;100.00
57568;BME280;43403;51.948;5.922;2022-12-24T13:53:38;101264.88;;;10.71;100.00
57568;BME280;43403;51.948;5.922;2022-12-24T13:56:21;101266.81;;;10.68;100.00
57568;BME280;43403;51.948;5.922;2022-12-24T13:58:55;101270.53;;;10.76;100.00
57568;BME280;43403;51.948;5.922;2022-12-24T14:01:35;101270.38;;;10.77;100.00
57568;BME280;43403;51.948;5.922;2022-12-24T14:04:06;101273.00;;;10.77;100.00
57568;BME280;43403;51.948;5.922;2022-12-24T14:06:39;101274.00;;;10.76;100.00
57568;BME280;43403;51.948;5.922;2022-12-24T14:09:17;101297.63;;;10.76;100.00
57568;BME280;43403;51.948;5.922;2022-12-24T14:14:42;101294.44;;;10.73;100.00
57568;BME280;43403;51.948;5.922;2022-12-24T14:19:43;101299.09;;;10.69;100.00
57568;BME280;43403;51.948;5.922;2022-12-24T14:24:50;101315.09;;;10.66;100.00
57568;BME280;43403;51.948;5.922;2022-12-24T14:27:19;101315.53;;;10.61;100.00
57568;BME280;43403;51.948;5.922;2022-12-24T14:30:06;101312.78;;;10.73;100.00